sensor_id;sensor_type;location;lat;lon;timestamp;P1;durP1;ratioP1;P2;durP2;ratioP2
13445;SDS011;6795;51.232;3.764;2022-07-03T00:01:00;0.95;;;0.20;;
13445;SDS011;6795;51.232;3.764;2022-07-03T00:03:31;1.75;;;0.20;;
13445;SDS011;6795;51.232;3.764;2022-07-03T00:05:59;1.77;;;0.30;;
13445;SDS011;6795;51.232;3.764;2022-07-03T00:08:28;1.38;;;0.30;;
13445;SDS011;6795;51.232;3.764;2022-07-03T00:10:56;2.13;;;0.60;;
13445;SDS011;6795;51.232;3.764;2022-07-03T00:13:24;4.82;;;1.08;;
13445;SDS011;6795;51.232;3.764;2022-07-03T00:15:53;1.23;;;0.30;;
13445;SDS011;6795;51.232;3.764;2022-07-03T00:18:21;2.50;;;0.40;;
13445;SDS011;6795;51.232;3.764;2022-07-03T00:20:59;1.05;;;0.20;;
13445;SDS011;6795;51.232;3.764;2022-07-03T00:23:29;0.82;;;0.30;;
13445;SDS011;6795;51.232;3.764;2022-07-03T00:26:04;0.30;;;0.30;;
13445;SDS011;6795;51.232;3.764;2022-07-03T00:28:33;0.30;;;0.30;;
13445;SDS011;6795;51.232;3.764;2022-07-03T00:31:01;0.68;;;0.30;;
13445;SDS011;6795;51.232;3.764;2022-07-03T00:33:31;0.40;;;0.22;;
13445;SDS011;6795;51.232;3.764;2022-07-03T00:36:03;3.40;;;0.40;;
13445;SDS011;6795;51.232;3.764;2022-07-03T00:38:32;1.65;;;0.20;;
13445;SDS011;6795;51.232;3.764;2022-07-03T00:41:01;0.30;;;0.20;;
13445;SDS011;6795;51.232;3.764;2022-07-03T00:43:30;0.68;;;0.20;;
13445;SDS011;6795;51.232;3.764;2022-07-03T00:46:03;0.85;;;0.30;;
13445;SDS011;6795;51.232;3.764;2022-07-03T00:48:36;1.65;;;0.77;;
13445;SDS011;6795;51.232;3.764;2022-07-03T00:51:07;1.42;;;0.55;;
13445;SDS011;6795;51.232;3.764;2022-07-03T00:53:42;8.93;;;1.75;;
13445;SDS011;6795;51.232;3.764;2022-07-03T00:56:13;3.53;;;0.30;;
13445;SDS011;6795;51.232;3.764;2022-07-03T00:58:43;0.90;;;0.43;;
13445;SDS011;6795;51.232;3.764;2022-07-03T01:01:14;3.80;;;0.60;;
13445;SDS011;6795;51.232;3.764;2022-07-03T01:03:45;0.73;;;0.20;;
13445;SDS011;6795;51.232;3.764;2022-07-03T01:06:17;0.85;;;0.38;;
13445;SDS011;6795;51.232;3.764;2022-07-03T01:08:47;1.50;;;0.30;;
13445;SDS011;6795;51.232;3.764;2022-07-03T01:11:20;1.73;;;0.28;;
13445;SDS011;6795;51.232;3.764;2022-07-03T01:13:56;1.08;;;0.30;;
13445;SDS011;6795;51.232;3.764;2022-07-03T01:16:34;0.50;;;0.30;;
13445;SDS011;6795;51.232;3.764;2022-07-03T01:19:10;1.00;;;0.40;;
13445;SDS011;6795;51.232;3.764;2022-07-03T01:22:00;0.35;;;0.30;;
13445;SDS011;6795;51.232;3.764;2022-07-03T01:24:49;0.60;;;0.40;;
13445;SDS011;6795;51.232;3.764;2022-07-03T01:27:32;0.50;;;0.30;;
13445;SDS011;6795;51.232;3.764;2022-07-03T01:30:08;0.88;;;0.40;;
13445;SDS011;6795;51.232;3.764;2022-07-03T01:32:41;1.60;;;0.30;;
13445;SDS011;6795;51.232;3.764;2022-07-03T01:35:11;1.52;;;0.30;;
13445;SDS011;6795;51.232;3.764;2022-07-03T01:37:43;3.45;;;0.30;;
13445;SDS011;6795;51.232;3.764;2022-07-03T01:40:13;1.25;;;0.30;;
13445;SDS011;6795;51.232;3.764;2022-07-03T01:42:45;0.47;;;0.20;;
13445;SDS011;6795;51.232;3.764;2022-07-03T01:45:15;1.58;;;0.32;;
13445;SDS011;6795;51.232;3.764;2022-07-03T01:47:48;2.50;;;1.13;;
13445;SDS011;6795;51.232;3.764;2022-07-03T01:50:19;0.40;;;0.40;;
13445;SDS011;6795;51.232;3.764;2022-07-03T01:52:49;1.60;;;0.40;;
13445;SDS011;6795;51.232;3.764;2022-07-03T01:55:18;3.17;;;0.30;;
13445;SDS011;6795;51.232;3.764;2022-07-03T01:57:49;1.85;;;0.30;;
13445;SDS011;6795;51.232;3.764;2022-07-03T02:00:21;0.70;;;0.40;;
13445;SDS011;6795;51.232;3.764;2022-07-03T02:02:54;1.15;;;0.30;;
13445;SDS011;6795;51.232;3.764;2022-07-03T02:05:35;1.65;;;0.40;;
13445;SDS011;6795;51.232;3.764;2022-07-03T02:08:08;2.17;;;0.52;;
13445;SDS011;6795;51.232;3.764;2022-07-03T02:10:57;1.60;;;0.40;;
13445;SDS011;6795;51.232;3.764;2022-07-03T02:13:37;1.63;;;0.30;;
13445;SDS011;6795;51.232;3.764;2022-07-03T02:16:08;1.95;;;0.40;;
13445;SDS011;6795;51.232;3.764;2022-07-03T02:18:39;1.55;;;0.40;;
13445;SDS011;6795;51.232;3.764;2022-07-03T02:21:12;2.50;;;0.50;;
13445;SDS011;6795;51.232;3.764;2022-07-03T02:26:46;1.08;;;0.50;;
13445;SDS011;6795;51.232;3.764;2022-07-03T02:29:24;1.08;;;0.77;;
13445;SDS011;6795;51.232;3.764;2022-07-03T02:32:00;1.08;;;0.40;;
13445;SDS011;6795;51.232;3.764;2022-07-03T02:34:30;1.10;;;0.60;;
13445;SDS011;6795;51.232;3.764;2022-07-03T02:37:03;1.20;;;0.40;;
13445;SDS011;6795;51.232;3.764;2022-07-03T02:39:38;1.27;;;0.50;;
13445;SDS011;6795;51.232;3.764;2022-07-03T02:42:14;0.90;;;0.40;;
13445;SDS011;6795;51.232;3.764;2022-07-03T02:44:54;0.55;;;0.50;;
13445;SDS011;6795;51.232;3.764;2022-07-03T02:47:27;3.20;;;0.40;;
13445;SDS011;6795;51.232;3.764;2022-07-03T02:50:03;2.55;;;0.40;;
13445;SDS011;6795;51.232;3.764;2022-07-03T02:52:42;1.25;;;0.40;;
13445;SDS011;6795;51.232;3.764;2022-07-03T02:55:22;0.52;;;0.52;;
13445;SDS011;6795;51.232;3.764;2022-07-03T02:58:21;1.40;;;0.65;;
13445;SDS011;6795;51.232;3.764;2022-07-03T03:00:59;0.60;;;0.60;;
13445;SDS011;6795;51.232;3.764;2022-07-03T03:03:35;1.60;;;0.60;;
13445;SDS011;6795;51.232;3.764;2022-07-03T03:06:09;1.08;;;0.80;;
13445;SDS011;6795;51.232;3.764;2022-07-03T03:08:43;2.80;;;0.77;;
13445;SDS011;6795;51.232;3.764;2022-07-03T03:11:18;1.00;;;0.90;;
13445;SDS011;6795;51.232;3.764;2022-07-03T03:13:54;0.80;;;0.80;;
13445;SDS011;6795;51.232;3.764;2022-07-03T03:16:25;2.55;;;1.23;;
13445;SDS011;6795;51.232;3.764;2022-07-03T03:18:54;2.85;;;0.90;;
13445;SDS011;6795;51.232;3.764;2022-07-03T03:21:23;1.25;;;0.80;;
13445;SDS011;6795;51.232;3.764;2022-07-03T03:23:55;3.92;;;1.00;;
13445;SDS011;6795;51.232;3.764;2022-07-03T03:26:27;2.75;;;1.13;;
13445;SDS011;6795;51.232;3.764;2022-07-03T03:28:59;4.20;;;0.93;;
13445;SDS011;6795;51.232;3.764;2022-07-03T03:31:29;5.00;;;1.17;;
13445;SDS011;6795;51.232;3.764;2022-07-03T03:33:59;1.27;;;1.10;;
13445;SDS011;6795;51.232;3.764;2022-07-03T03:36:27;1.20;;;1.10;;
13445;SDS011;6795;51.232;3.764;2022-07-03T03:38:56;2.80;;;1.05;;
13445;SDS011;6795;51.232;3.764;2022-07-03T03:41:25;2.25;;;1.40;;
13445;SDS011;6795;51.232;3.764;2022-07-03T03:43:53;4.72;;;1.65;;
13445;SDS011;6795;51.232;3.764;2022-07-03T03:46:22;1.38;;;1.27;;
13445;SDS011;6795;51.232;3.764;2022-07-03T03:48:51;4.00;;;1.80;;
13445;SDS011;6795;51.232;3.764;2022-07-03T03:51:20;5.68;;;1.98;;
13445;SDS011;6795;51.232;3.764;2022-07-03T03:53:48;3.75;;;1.67;;
13445;SDS011;6795;51.232;3.764;2022-07-03T03:56:18;2.58;;;1.77;;
13445;SDS011;6795;51.232;3.764;2022-07-03T03:58:46;2.78;;;2.20;;
13445;SDS011;6795;51.232;3.764;2022-07-03T04:01:14;3.85;;;2.38;;
13445;SDS011;6795;51.232;3.764;2022-07-03T04:03:43;3.63;;;2.55;;
13445;SDS011;6795;51.232;3.764;2022-07-03T04:06:12;3.05;;;2.78;;
13445;SDS011;6795;51.232;3.764;2022-07-03T04:08:41;3.30;;;2.65;;
13445;SDS011;6795;51.232;3.764;2022-07-03T04:11:09;4.22;;;3.75;;
13445;SDS011;6795;51.232;3.764;2022-07-03T04:13:40;3.67;;;3.08;;
13445;SDS011;6795;51.232;3.764;2022-07-03T04:16:08;3.85;;;3.05;;
13445;SDS011;6795;51.232;3.764;2022-07-03T04:18:36;5.55;;;3.78;;
13445;SDS011;6795;51.232;3.764;2022-07-03T04:21:04;5.57;;;3.45;;
13445;SDS011;6795;51.232;3.764;2022-07-03T04:23:34;6.05;;;3.83;;
13445;SDS011;6795;51.232;3.764;2022-07-03T04:26:03;4.53;;;3.88;;
13445;SDS011;6795;51.232;3.764;2022-07-03T04:28:32;7.53;;;4.85;;
13445;SDS011;6795;51.232;3.764;2022-07-03T04:31:00;5.07;;;3.70;;
13445;SDS011;6795;51.232;3.764;2022-07-03T04:33:28;5.18;;;3.25;;
13445;SDS011;6795;51.232;3.764;2022-07-03T04:35:57;5.88;;;4.38;;
13445;SDS011;6795;51.232;3.764;2022-07-03T04:38:25;6.03;;;5.38;;
13445;SDS011;6795;51.232;3.764;2022-07-03T04:40:55;8.63;;;4.70;;
13445;SDS011;6795;51.232;3.764;2022-07-03T04:43:23;5.70;;;5.00;;
13445;SDS011;6795;51.232;3.764;2022-07-03T04:45:51;6.03;;;4.38;;
13445;SDS011;6795;51.232;3.764;2022-07-03T04:48:19;5.72;;;4.07;;
13445;SDS011;6795;51.232;3.764;2022-07-03T04:50:47;5.32;;;4.82;;
13445;SDS011;6795;51.232;3.764;2022-07-03T04:53:16;7.10;;;4.45;;
13445;SDS011;6795;51.232;3.764;2022-07-03T04:55:44;4.78;;;4.10;;
13445;SDS011;6795;51.232;3.764;2022-07-03T04:58:14;7.82;;;3.63;;
13445;SDS011;6795;51.232;3.764;2022-07-03T05:00:42;6.95;;;3.25;;
13445;SDS011;6795;51.232;3.764;2022-07-03T05:03:11;3.17;;;2.88;;
13445;SDS011;6795;51.232;3.764;2022-07-03T05:05:39;5.55;;;3.20;;
13445;SDS011;6795;51.232;3.764;2022-07-03T05:08:07;4.93;;;3.25;;
13445;SDS011;6795;51.232;3.764;2022-07-03T05:10:36;4.18;;;3.08;;
13445;SDS011;6795;51.232;3.764;2022-07-03T05:13:04;4.60;;;3.38;;
13445;SDS011;6795;51.232;3.764;2022-07-03T05:15:34;4.50;;;3.05;;
13445;SDS011;6795;51.232;3.764;2022-07-03T05:18:04;3.20;;;2.90;;
13445;SDS011;6795;51.232;3.764;2022-07-03T05:20:32;4.57;;;3.22;;
13445;SDS011;6795;51.232;3.764;2022-07-03T05:23:01;9.90;;;3.55;;
13445;SDS011;6795;51.232;3.764;2022-07-03T05:25:30;5.65;;;3.03;;
13445;SDS011;6795;51.232;3.764;2022-07-03T05:28:00;5.05;;;3.50;;
13445;SDS011;6795;51.232;3.764;2022-07-03T05:30:28;7.47;;;3.88;;
13445;SDS011;6795;51.232;3.764;2022-07-03T05:32:58;4.72;;;3.30;;
13445;SDS011;6795;51.232;3.764;2022-07-03T05:35:27;5.53;;;3.10;;
13445;SDS011;6795;51.232;3.764;2022-07-03T05:37:55;5.22;;;3.65;;
13445;SDS011;6795;51.232;3.764;2022-07-03T05:40:23;4.53;;;3.15;;
13445;SDS011;6795;51.232;3.764;2022-07-03T05:42:52;6.43;;;3.83;;
13445;SDS011;6795;51.232;3.764;2022-07-03T05:45:20;4.40;;;3.33;;
13445;SDS011;6795;51.232;3.764;2022-07-03T05:47:49;5.95;;;3.80;;
13445;SDS011;6795;51.232;3.764;2022-07-03T05:50:18;4.60;;;3.63;;
13445;SDS011;6795;51.232;3.764;2022-07-03T05:52:46;4.53;;;3.20;;
13445;SDS011;6795;51.232;3.764;2022-07-03T05:55:15;4.45;;;3.97;;
13445;SDS011;6795;51.232;3.764;2022-07-03T05:57:43;6.82;;;3.28;;
13445;SDS011;6795;51.232;3.764;2022-07-03T06:00:12;5.88;;;4.15;;
13445;SDS011;6795;51.232;3.764;2022-07-03T06:02:40;5.57;;;3.35;;
13445;SDS011;6795;51.232;3.764;2022-07-03T06:05:09;6.70;;;3.58;;
13445;SDS011;6795;51.232;3.764;2022-07-03T06:07:38;6.53;;;3.55;;
13445;SDS011;6795;51.232;3.764;2022-07-03T06:10:07;5.63;;;3.03;;
13445;SDS011;6795;51.232;3.764;2022-07-03T06:12:35;4.22;;;3.20;;
13445;SDS011;6795;51.232;3.764;2022-07-03T06:15:04;6.50;;;3.38;;
13445;SDS011;6795;51.232;3.764;2022-07-03T06:17:34;3.85;;;3.22;;
13445;SDS011;6795;51.232;3.764;2022-07-03T06:20:02;3.50;;;3.20;;
13445;SDS011;6795;51.232;3.764;2022-07-03T06:22:33;5.18;;;3.20;;
13445;SDS011;6795;51.232;3.764;2022-07-03T06:25:03;4.93;;;3.13;;
13445;SDS011;6795;51.232;3.764;2022-07-03T06:27:32;4.57;;;3.03;;
13445;SDS011;6795;51.232;3.764;2022-07-03T06:30:01;3.58;;;3.03;;
13445;SDS011;6795;51.232;3.764;2022-07-03T06:32:30;2.85;;;2.65;;
13445;SDS011;6795;51.232;3.764;2022-07-03T06:34:58;5.80;;;2.92;;
13445;SDS011;6795;51.232;3.764;2022-07-03T06:37:26;5.60;;;2.80;;
13445;SDS011;6795;51.232;3.764;2022-07-03T06:39:55;5.70;;;2.35;;
13445;SDS011;6795;51.232;3.764;2022-07-03T06:42:24;3.67;;;2.15;;
13445;SDS011;6795;51.232;3.764;2022-07-03T06:44:53;4.25;;;2.45;;
13445;SDS011;6795;51.232;3.764;2022-07-03T06:47:21;3.05;;;2.47;;
13445;SDS011;6795;51.232;3.764;2022-07-03T06:49:49;2.55;;;2.35;;
13445;SDS011;6795;51.232;3.764;2022-07-03T06:52:17;2.38;;;2.25;;
13445;SDS011;6795;51.232;3.764;2022-07-03T06:54:46;4.05;;;2.50;;
13445;SDS011;6795;51.232;3.764;2022-07-03T06:57:14;4.57;;;2.58;;
13445;SDS011;6795;51.232;3.764;2022-07-03T06:59:44;3.15;;;2.85;;
13445;SDS011;6795;51.232;3.764;2022-07-03T07:02:12;3.33;;;2.45;;
13445;SDS011;6795;51.232;3.764;2022-07-03T07:04:42;3.53;;;2.05;;
13445;SDS011;6795;51.232;3.764;2022-07-03T07:07:11;3.58;;;1.98;;
13445;SDS011;6795;51.232;3.764;2022-07-03T07:09:39;2.95;;;2.47;;
13445;SDS011;6795;51.232;3.764;2022-07-03T07:12:08;2.47;;;2.13;;
13445;SDS011;6795;51.232;3.764;2022-07-03T07:14:37;2.78;;;2.03;;
13445;SDS011;6795;51.232;3.764;2022-07-03T07:17:06;2.20;;;1.83;;
13445;SDS011;6795;51.232;3.764;2022-07-03T07:19:35;3.75;;;1.70;;
13445;SDS011;6795;51.232;3.764;2022-07-03T07:22:03;2.30;;;1.95;;
13445;SDS011;6795;51.232;3.764;2022-07-03T07:24:32;2.15;;;1.15;;
13445;SDS011;6795;51.232;3.764;2022-07-03T07:27:00;2.28;;;1.13;;
13445;SDS011;6795;51.232;3.764;2022-07-03T07:29:28;3.08;;;1.30;;
13445;SDS011;6795;51.232;3.764;2022-07-03T07:31:57;1.95;;;1.35;;
13445;SDS011;6795;51.232;3.764;2022-07-03T07:34:26;2.55;;;0.75;;
13445;SDS011;6795;51.232;3.764;2022-07-03T07:36:55;1.27;;;0.55;;
13445;SDS011;6795;51.232;3.764;2022-07-03T07:39:23;2.10;;;1.15;;
13445;SDS011;6795;51.232;3.764;2022-07-03T07:41:51;1.10;;;0.55;;
13445;SDS011;6795;51.232;3.764;2022-07-03T07:44:20;2.92;;;0.60;;
13445;SDS011;6795;51.232;3.764;2022-07-03T07:46:48;0.73;;;0.50;;
13445;SDS011;6795;51.232;3.764;2022-07-03T07:49:17;2.83;;;0.50;;
13445;SDS011;6795;51.232;3.764;2022-07-03T07:51:46;1.60;;;0.60;;
13445;SDS011;6795;51.232;3.764;2022-07-03T07:54:15;1.17;;;0.63;;
13445;SDS011;6795;51.232;3.764;2022-07-03T07:56:43;1.73;;;0.57;;
13445;SDS011;6795;51.232;3.764;2022-07-03T07:59:11;2.25;;;0.73;;
13445;SDS011;6795;51.232;3.764;2022-07-03T08:01:39;0.88;;;0.50;;
13445;SDS011;6795;51.232;3.764;2022-07-03T08:04:25;2.72;;;0.57;;
13445;SDS011;6795;51.232;3.764;2022-07-03T08:07:12;2.90;;;0.55;;
13445;SDS011;6795;51.232;3.764;2022-07-03T08:09:40;0.95;;;0.65;;
13445;SDS011;6795;51.232;3.764;2022-07-03T08:12:09;2.17;;;0.68;;
13445;SDS011;6795;51.232;3.764;2022-07-03T08:14:37;0.88;;;0.50;;
13445;SDS011;6795;51.232;3.764;2022-07-03T08:17:06;1.88;;;0.40;;
13445;SDS011;6795;51.232;3.764;2022-07-03T08:19:34;1.27;;;0.40;;
13445;SDS011;6795;51.232;3.764;2022-07-03T08:22:02;3.42;;;0.57;;
13445;SDS011;6795;51.232;3.764;2022-07-03T08:24:32;2.15;;;0.35;;
13445;SDS011;6795;51.232;3.764;2022-07-03T08:27:00;1.00;;;0.20;;
13445;SDS011;6795;51.232;3.764;2022-07-03T08:29:29;0.88;;;0.30;;
13445;SDS011;6795;51.232;3.764;2022-07-03T08:32:02;0.63;;;0.30;;
13445;SDS011;6795;51.232;3.764;2022-07-03T08:34:31;1.75;;;0.30;;
13445;SDS011;6795;51.232;3.764;2022-07-03T08:36:59;0.95;;;0.20;;
13445;SDS011;6795;51.232;3.764;2022-07-03T08:39:27;1.42;;;0.50;;
13445;SDS011;6795;51.232;3.764;2022-07-03T08:41:57;2.22;;;0.40;;
13445;SDS011;6795;51.232;3.764;2022-07-03T08:44:26;0.65;;;0.30;;
13445;SDS011;6795;51.232;3.764;2022-07-03T08:46:55;2.33;;;0.40;;
13445;SDS011;6795;51.232;3.764;2022-07-03T08:49:24;1.95;;;0.40;;
13445;SDS011;6795;51.232;3.764;2022-07-03T08:51:53;2.60;;;0.40;;
13445;SDS011;6795;51.232;3.764;2022-07-03T08:54:22;2.10;;;0.43;;
13445;SDS011;6795;51.232;3.764;2022-07-03T08:56:51;1.95;;;0.40;;
13445;SDS011;6795;51.232;3.764;2022-07-03T08:59:21;2.17;;;0.30;;
13445;SDS011;6795;51.232;3.764;2022-07-03T09:01:52;4.80;;;0.63;;
13445;SDS011;6795;51.232;3.764;2022-07-03T09:04:20;0.50;;;0.10;;
13445;SDS011;6795;51.232;3.764;2022-07-03T09:06:49;0.90;;;0.30;;
13445;SDS011;6795;51.232;3.764;2022-07-03T09:09:22;1.65;;;0.30;;
13445;SDS011;6795;51.232;3.764;2022-07-03T09:11:50;0.35;;;0.25;;
13445;SDS011;6795;51.232;3.764;2022-07-03T09:14:21;0.50;;;0.30;;
13445;SDS011;6795;51.232;3.764;2022-07-03T09:16:49;1.10;;;0.30;;
13445;SDS011;6795;51.232;3.764;2022-07-03T09:22:18;0.50;;;0.40;;
13445;SDS011;6795;51.232;3.764;2022-07-03T09:24:49;1.25;;;0.40;;
13445;SDS011;6795;51.232;3.764;2022-07-03T09:27:19;0.57;;;0.28;;
13445;SDS011;6795;51.232;3.764;2022-07-03T09:30:00;1.15;;;0.45;;
13445;SDS011;6795;51.232;3.764;2022-07-03T09:32:31;3.58;;;0.43;;
13445;SDS011;6795;51.232;3.764;2022-07-03T09:35:16;2.30;;;0.40;;
13445;SDS011;6795;51.232;3.764;2022-07-03T09:37:49;3.60;;;0.68;;
13445;SDS011;6795;51.232;3.764;2022-07-03T09:40:19;2.05;;;0.55;;
13445;SDS011;6795;51.232;3.764;2022-07-03T09:42:59;2.83;;;0.50;;
13445;SDS011;6795;51.232;3.764;2022-07-03T09:45:47;2.15;;;0.30;;
13445;SDS011;6795;51.232;3.764;2022-07-03T09:48:27;1.10;;;0.50;;
13445;SDS011;6795;51.232;3.764;2022-07-03T09:51:08;0.70;;;0.20;;
13445;SDS011;6795;51.232;3.764;2022-07-03T09:53:56;2.08;;;0.30;;
13445;SDS011;6795;51.232;3.764;2022-07-03T09:56:26;2.33;;;0.32;;
13445;SDS011;6795;51.232;3.764;2022-07-03T09:59:02;1.65;;;0.40;;
13445;SDS011;6795;51.232;3.764;2022-07-03T10:01:38;1.95;;;0.38;;
13445;SDS011;6795;51.232;3.764;2022-07-03T10:04:12;1.58;;;0.30;;
13445;SDS011;6795;51.232;3.764;2022-07-03T10:06:47;1.67;;;0.30;;
13445;SDS011;6795;51.232;3.764;2022-07-03T10:09:18;1.98;;;0.30;;
13445;SDS011;6795;51.232;3.764;2022-07-03T10:11:47;0.93;;;0.30;;
13445;SDS011;6795;51.232;3.764;2022-07-03T10:14:16;0.50;;;0.30;;
13445;SDS011;6795;51.232;3.764;2022-07-03T10:16:47;0.77;;;0.30;;
13445;SDS011;6795;51.232;3.764;2022-07-03T10:19:17;0.32;;;0.20;;
13445;SDS011;6795;51.232;3.764;2022-07-03T10:21:51;0.32;;;0.30;;
13445;SDS011;6795;51.232;3.764;2022-07-03T10:24:21;1.58;;;0.40;;
13445;SDS011;6795;51.232;3.764;2022-07-03T10:26:51;0.40;;;0.30;;
13445;SDS011;6795;51.232;3.764;2022-07-03T10:29:20;1.35;;;0.30;;
13445;SDS011;6795;51.232;3.764;2022-07-03T10:31:56;1.67;;;0.20;;
13445;SDS011;6795;51.232;3.764;2022-07-03T10:34:26;0.88;;;0.30;;
13445;SDS011;6795;51.232;3.764;2022-07-03T10:36:57;0.55;;;0.25;;
13445;SDS011;6795;51.232;3.764;2022-07-03T10:39:32;0.30;;;0.20;;
13445;SDS011;6795;51.232;3.764;2022-07-03T10:42:08;0.35;;;0.20;;
13445;SDS011;6795;51.232;3.764;2022-07-03T10:45:05;0.25;;;0.20;;
13445;SDS011;6795;51.232;3.764;2022-07-03T10:47:45;0.52;;;0.15;;
13445;SDS011;6795;51.232;3.764;2022-07-03T10:50:15;1.20;;;0.20;;
13445;SDS011;6795;51.232;3.764;2022-07-03T10:52:46;1.15;;;0.20;;
13445;SDS011;6795;51.232;3.764;2022-07-03T10:55:15;2.53;;;0.25;;
13445;SDS011;6795;51.232;3.764;2022-07-03T11:09:24;0.88;;;0.20;;
13445;SDS011;6795;51.232;3.764;2022-07-03T11:11:52;0.20;;;0.10;;
13445;SDS011;6795;51.232;3.764;2022-07-03T11:14:24;0.68;;;0.50;;
13445;SDS011;6795;51.232;3.764;2022-07-03T11:19:47;1.35;;;0.10;;
13445;SDS011;6795;51.232;3.764;2022-07-03T11:22:31;0.22;;;0.20;;
13445;SDS011;6795;51.232;3.764;2022-07-03T11:25:07;0.85;;;0.10;;
13445;SDS011;6795;51.232;3.764;2022-07-03T11:27:36;0.10;;;0.10;;
13445;SDS011;6795;51.232;3.764;2022-07-03T11:30:04;0.15;;;0.10;;
13445;SDS011;6795;51.232;3.764;2022-07-03T11:32:49;0.63;;;0.20;;
13445;SDS011;6795;51.232;3.764;2022-07-03T11:38:20;0.52;;;0.10;;
13445;SDS011;6795;51.232;3.764;2022-07-03T11:40:50;0.20;;;0.20;;
13445;SDS011;6795;51.232;3.764;2022-07-03T11:43:19;0.38;;;0.10;;
13445;SDS011;6795;51.232;3.764;2022-07-03T11:45:48;1.00;;;0.13;;
13445;SDS011;6795;51.232;3.764;2022-07-03T11:48:18;1.35;;;0.13;;
13445;SDS011;6795;51.232;3.764;2022-07-03T11:50:48;0.20;;;0.20;;
13445;SDS011;6795;51.232;3.764;2022-07-03T11:53:18;1.55;;;0.10;;
13445;SDS011;6795;51.232;3.764;2022-07-03T11:55:55;1.13;;;0.15;;
13445;SDS011;6795;51.232;3.764;2022-07-03T11:58:25;0.95;;;0.10;;
13445;SDS011;6795;51.232;3.764;2022-07-03T12:01:07;0.20;;;0.10;;
13445;SDS011;6795;51.232;3.764;2022-07-03T12:03:36;0.08;;;0.08;;
13445;SDS011;6795;51.232;3.764;2022-07-03T12:06:06;1.75;;;0.30;;
13445;SDS011;6795;51.232;3.764;2022-07-03T12:08:34;0.10;;;0.10;;
13445;SDS011;6795;51.232;3.764;2022-07-03T12:11:06;1.58;;;0.10;;
13445;SDS011;6795;51.232;3.764;2022-07-03T12:13:35;1.52;;;0.20;;
13445;SDS011;6795;51.232;3.764;2022-07-03T12:16:05;1.40;;;0.30;;
13445;SDS011;6795;51.232;3.764;2022-07-03T12:18:48;1.33;;;0.17;;
13445;SDS011;6795;51.232;3.764;2022-07-03T12:21:20;0.10;;;0.10;;
13445;SDS011;6795;51.232;3.764;2022-07-03T12:23:50;2.13;;;0.10;;
13445;SDS011;6795;51.232;3.764;2022-07-03T12:26:28;2.70;;;0.10;;
13445;SDS011;6795;51.232;3.764;2022-07-03T12:28:58;0.20;;;0.20;;
13445;SDS011;6795;51.232;3.764;2022-07-03T12:31:27;0.28;;;0.20;;
13445;SDS011;6795;51.232;3.764;2022-07-03T12:33:56;0.57;;;0.10;;
13445;SDS011;6795;51.232;3.764;2022-07-03T12:36:27;1.38;;;0.10;;
13445;SDS011;6795;51.232;3.764;2022-07-03T12:38:56;0.90;;;0.10;;
13445;SDS011;6795;51.232;3.764;2022-07-03T12:41:26;0.68;;;0.20;;
13445;SDS011;6795;51.232;3.764;2022-07-03T12:43:55;0.70;;;0.20;;
13445;SDS011;6795;51.232;3.764;2022-07-03T12:46:25;0.90;;;0.10;;
13445;SDS011;6795;51.232;3.764;2022-07-03T12:49:00;1.05;;;0.10;;
13445;SDS011;6795;51.232;3.764;2022-07-03T12:51:38;0.50;;;0.10;;
13445;SDS011;6795;51.232;3.764;2022-07-03T12:54:14;0.82;;;0.10;;
13445;SDS011;6795;51.232;3.764;2022-07-03T12:56:43;1.48;;;0.10;;
13445;SDS011;6795;51.232;3.764;2022-07-03T12:59:24;0.63;;;0.10;;
13445;SDS011;6795;51.232;3.764;2022-07-03T13:02:01;0.13;;;0.10;;
13445;SDS011;6795;51.232;3.764;2022-07-03T13:04:34;3.22;;;0.20;;
13445;SDS011;6795;51.232;3.764;2022-07-03T13:07:05;0.90;;;0.15;;
13445;SDS011;6795;51.232;3.764;2022-07-03T13:09:35;5.40;;;0.20;;
13445;SDS011;6795;51.232;3.764;2022-07-03T13:12:04;1.38;;;0.10;;
13445;SDS011;6795;51.232;3.764;2022-07-03T13:14:33;0.10;;;0.10;;
13445;SDS011;6795;51.232;3.764;2022-07-03T13:17:01;0.20;;;0.10;;
13445;SDS011;6795;51.232;3.764;2022-07-03T13:19:30;0.17;;;0.17;;
13445;SDS011;6795;51.232;3.764;2022-07-03T13:21:58;0.20;;;0.10;;
13445;SDS011;6795;51.232;3.764;2022-07-03T13:24:28;0.68;;;0.20;;
13445;SDS011;6795;51.232;3.764;2022-07-03T13:26:56;1.17;;;0.20;;
13445;SDS011;6795;51.232;3.764;2022-07-03T13:29:25;1.38;;;0.20;;
13445;SDS011;6795;51.232;3.764;2022-07-03T13:31:53;2.28;;;0.10;;
13445;SDS011;6795;51.232;3.764;2022-07-03T13:34:22;0.28;;;0.10;;
13445;SDS011;6795;51.232;3.764;2022-07-03T13:36:50;0.10;;;0.10;;
13445;SDS011;6795;51.232;3.764;2022-07-03T13:39:18;0.10;;;0.10;;
13445;SDS011;6795;51.232;3.764;2022-07-03T13:41:48;2.53;;;0.43;;
13445;SDS011;6795;51.232;3.764;2022-07-03T13:44:17;1.83;;;0.10;;
13445;SDS011;6795;51.232;3.764;2022-07-03T13:46:45;1.35;;;0.10;;
13445;SDS011;6795;51.232;3.764;2022-07-03T13:49:17;0.93;;;0.10;;
13445;SDS011;6795;51.232;3.764;2022-07-03T13:51:46;1.10;;;0.10;;
13445;SDS011;6795;51.232;3.764;2022-07-03T13:54:14;0.90;;;0.00;;
13445;SDS011;6795;51.232;3.764;2022-07-03T13:56:43;0.30;;;0.10;;
13445;SDS011;6795;51.232;3.764;2022-07-03T13:59:12;0.32;;;0.08;;
13445;SDS011;6795;51.232;3.764;2022-07-03T14:01:40;0.95;;;0.10;;
13445;SDS011;6795;51.232;3.764;2022-07-03T14:04:09;0.22;;;0.10;;
13445;SDS011;6795;51.232;3.764;2022-07-03T14:06:37;1.10;;;0.10;;
13445;SDS011;6795;51.232;3.764;2022-07-03T14:09:06;0.30;;;0.10;;
13445;SDS011;6795;51.232;3.764;2022-07-03T14:11:34;0.10;;;0.10;;
13445;SDS011;6795;51.232;3.764;2022-07-03T14:14:03;0.28;;;0.10;;
13445;SDS011;6795;51.232;3.764;2022-07-03T14:16:33;0.98;;;0.20;;
13445;SDS011;6795;51.232;3.764;2022-07-03T14:19:02;1.98;;;0.10;;
13445;SDS011;6795;51.232;3.764;2022-07-03T14:21:32;0.28;;;0.15;;
13445;SDS011;6795;51.232;3.764;2022-07-03T14:24:00;0.43;;;0.20;;
13445;SDS011;6795;51.232;3.764;2022-07-03T14:26:29;1.15;;;0.20;;
13445;SDS011;6795;51.232;3.764;2022-07-03T14:29:15;0.30;;;0.10;;
13445;SDS011;6795;51.232;3.764;2022-07-03T14:32:02;2.00;;;0.10;;
13445;SDS011;6795;51.232;3.764;2022-07-03T14:34:48;1.20;;;0.20;;
13445;SDS011;6795;51.232;3.764;2022-07-03T14:37:18;0.32;;;0.10;;
13445;SDS011;6795;51.232;3.764;2022-07-03T14:39:46;0.45;;;0.08;;
13445;SDS011;6795;51.232;3.764;2022-07-03T14:42:14;0.20;;;0.10;;
13445;SDS011;6795;51.232;3.764;2022-07-03T14:44:43;0.82;;;0.10;;
13445;SDS011;6795;51.232;3.764;2022-07-03T14:47:13;0.30;;;0.10;;
13445;SDS011;6795;51.232;3.764;2022-07-03T14:49:44;0.50;;;0.10;;
13445;SDS011;6795;51.232;3.764;2022-07-03T14:52:12;1.25;;;0.10;;
13445;SDS011;6795;51.232;3.764;2022-07-03T14:54:41;2.80;;;0.10;;
13445;SDS011;6795;51.232;3.764;2022-07-03T14:57:17;0.75;;;0.10;;
13445;SDS011;6795;51.232;3.764;2022-07-03T14:59:56;0.10;;;0.10;;
13445;SDS011;6795;51.232;3.764;2022-07-03T15:02:44;1.70;;;0.10;;
13445;SDS011;6795;51.232;3.764;2022-07-03T15:05:16;0.30;;;0.00;;
13445;SDS011;6795;51.232;3.764;2022-07-03T15:07:49;2.20;;;0.20;;
13445;SDS011;6795;51.232;3.764;2022-07-03T15:10:26;1.20;;;0.10;;
13445;SDS011;6795;51.232;3.764;2022-07-03T15:12:58;0.73;;;0.10;;
13445;SDS011;6795;51.232;3.764;2022-07-03T15:15:32;2.90;;;0.20;;
13445;SDS011;6795;51.232;3.764;2022-07-03T15:18:03;0.40;;;0.10;;
13445;SDS011;6795;51.232;3.764;2022-07-03T15:20:36;1.48;;;0.10;;
13445;SDS011;6795;51.232;3.764;2022-07-03T15:23:05;1.88;;;0.30;;
13445;SDS011;6795;51.232;3.764;2022-07-03T15:25:35;0.80;;;0.30;;
13445;SDS011;6795;51.232;3.764;2022-07-03T15:28:08;0.98;;;0.10;;
13445;SDS011;6795;51.232;3.764;2022-07-03T15:30:37;0.38;;;0.10;;
13445;SDS011;6795;51.232;3.764;2022-07-03T15:33:14;1.73;;;0.10;;
13445;SDS011;6795;51.232;3.764;2022-07-03T15:35:44;1.13;;;0.00;;
13445;SDS011;6795;51.232;3.764;2022-07-03T15:38:17;0.90;;;0.10;;
13445;SDS011;6795;51.232;3.764;2022-07-03T15:40:58;0.22;;;0.10;;
13445;SDS011;6795;51.232;3.764;2022-07-03T15:43:43;2.00;;;0.10;;
13445;SDS011;6795;51.232;3.764;2022-07-03T15:46:23;0.55;;;0.03;;
13445;SDS011;6795;51.232;3.764;2022-07-03T15:52:09;1.25;;;0.10;;